sensor_id;sensor_type;location;lat;lon;timestamp;P1;durP1;ratioP1;P2;durP2;ratioP2
22826;SDS011;11580;52.562;13.418;2022-10-17T00:02:20;8.27;;;7.40;;
22826;SDS011;11580;52.562;13.418;2022-10-17T00:04:49;8.17;;;7.47;;
22826;SDS011;11580;52.562;13.418;2022-10-17T00:07:16;7.83;;;7.20;;
22826;SDS011;11580;52.562;13.418;2022-10-17T00:09:43;8.17;;;7.43;;
22826;SDS011;11580;52.562;13.418;2022-10-17T00:12:10;7.60;;;7.00;;
22826;SDS011;11580;52.562;13.418;2022-10-17T00:14:37;8.07;;;7.40;;
22826;SDS011;11580;52.562;13.418;2022-10-17T00:17:04;7.93;;;7.23;;
22826;SDS011;11580;52.562;13.418;2022-10-17T00:19:32;9.03;;;8.23;;
22826;SDS011;11580;52.562;13.418;2022-10-17T00:22:00;7.90;;;7.30;;
22826;SDS011;11580;52.562;13.418;2022-10-17T00:24:29;8.73;;;7.90;;
22826;SDS011;11580;52.562;13.418;2022-10-17T00:26:56;8.30;;;7.70;;
22826;SDS011;11580;52.562;13.418;2022-10-17T00:29:23;8.67;;;7.97;;
22826;SDS011;11580;52.562;13.418;2022-10-17T00:31:52;8.67;;;7.97;;
22826;SDS011;11580;52.562;13.418;2022-10-17T00:34:21;8.50;;;7.80;;
22826;SDS011;11580;52.562;13.418;2022-10-17T00:36:50;8.30;;;7.57;;
22826;SDS011;11580;52.562;13.418;2022-10-17T00:39:19;8.23;;;7.53;;
22826;SDS011;11580;52.562;13.418;2022-10-17T00:41:46;9.07;;;8.23;;
22826;SDS011;11580;52.562;13.418;2022-10-17T00:47:27;7.60;;;7.00;;
22826;SDS011;11580;52.562;13.418;2022-10-17T00:49:55;8.33;;;7.73;;
22826;SDS011;11580;52.562;13.418;2022-10-17T00:52:26;8.23;;;7.60;;
22826;SDS011;11580;52.562;13.418;2022-10-17T00:54:58;8.17;;;7.57;;
22826;SDS011;11580;52.562;13.418;2022-10-17T00:57:33;7.57;;;6.97;;
22826;SDS011;11580;52.562;13.418;2022-10-17T01:00:02;7.83;;;7.23;;
22826;SDS011;11580;52.562;13.418;2022-10-17T01:02:33;7.97;;;7.27;;
22826;SDS011;11580;52.562;13.418;2022-10-17T01:05:01;8.03;;;7.33;;
22826;SDS011;11580;52.562;13.418;2022-10-17T01:07:29;8.33;;;7.63;;
22826;SDS011;11580;52.562;13.418;2022-10-17T01:09:58;8.67;;;7.87;;
22826;SDS011;11580;52.562;13.418;2022-10-17T01:12:27;7.77;;;7.03;;
22826;SDS011;11580;52.562;13.418;2022-10-17T01:15:08;8.20;;;7.50;;
22826;SDS011;11580;52.562;13.418;2022-10-17T01:17:50;8.57;;;7.87;;
22826;SDS011;11580;52.562;13.418;2022-10-17T01:23:39;7.80;;;7.20;;
22826;SDS011;11580;52.562;13.418;2022-10-17T01:26:36;7.03;;;6.47;;
22826;SDS011;11580;52.562;13.418;2022-10-17T01:29:28;6.97;;;6.47;;
22826;SDS011;11580;52.562;13.418;2022-10-17T01:32:14;6.50;;;6.00;;
22826;SDS011;11580;52.562;13.418;2022-10-17T01:34:54;7.57;;;6.90;;
22826;SDS011;11580;52.562;13.418;2022-10-17T01:37:29;6.80;;;6.30;;
22826;SDS011;11580;52.562;13.418;2022-10-17T01:40:05;6.77;;;6.27;;
22826;SDS011;11580;52.562;13.418;2022-10-17T01:42:40;7.00;;;6.40;;
22826;SDS011;11580;52.562;13.418;2022-10-17T01:45:15;6.13;;;5.70;;
22826;SDS011;11580;52.562;13.418;2022-10-17T01:47:49;6.00;;;5.50;;
22826;SDS011;11580;52.562;13.418;2022-10-17T01:50:23;5.63;;;5.23;;
22826;SDS011;11580;52.562;13.418;2022-10-17T01:52:58;6.23;;;5.73;;
22826;SDS011;11580;52.562;13.418;2022-10-17T01:55:34;6.23;;;5.63;;
22826;SDS011;11580;52.562;13.418;2022-10-17T01:58:07;6.03;;;5.53;;
22826;SDS011;11580;52.562;13.418;2022-10-17T02:00:41;7.03;;;6.43;;
22826;SDS011;11580;52.562;13.418;2022-10-17T02:03:14;6.17;;;5.77;;
22826;SDS011;11580;52.562;13.418;2022-10-17T02:05:46;6.30;;;5.80;;
22826;SDS011;11580;52.562;13.418;2022-10-17T02:08:23;7.13;;;6.63;;
22826;SDS011;11580;52.562;13.418;2022-10-17T02:10:53;6.60;;;6.00;;
22826;SDS011;11580;52.562;13.418;2022-10-17T02:13:31;6.00;;;5.60;;
22826;SDS011;11580;52.562;13.418;2022-10-17T02:16:17;5.73;;;5.33;;
22826;SDS011;11580;52.562;13.418;2022-10-17T02:19:04;5.60;;;5.20;;
22826;SDS011;11580;52.562;13.418;2022-10-17T02:21:52;5.43;;;5.03;;
22826;SDS011;11580;52.562;13.418;2022-10-17T02:24:38;5.33;;;4.97;;
22826;SDS011;11580;52.562;13.418;2022-10-17T02:27:16;5.57;;;5.17;;
22826;SDS011;11580;52.562;13.418;2022-10-17T02:30:00;5.70;;;5.37;;
22826;SDS011;11580;52.562;13.418;2022-10-17T02:32:36;5.83;;;5.17;;
22826;SDS011;11580;52.562;13.418;2022-10-17T02:35:14;5.53;;;5.03;;
22826;SDS011;11580;52.562;13.418;2022-10-17T02:37:44;4.70;;;4.40;;
22826;SDS011;11580;52.562;13.418;2022-10-17T02:40:15;5.67;;;5.27;;
22826;SDS011;11580;52.562;13.418;2022-10-17T02:42:47;4.67;;;4.40;;
22826;SDS011;11580;52.562;13.418;2022-10-17T02:45:17;4.57;;;4.27;;
22826;SDS011;11580;52.562;13.418;2022-10-17T02:47:48;4.33;;;4.03;;
22826;SDS011;11580;52.562;13.418;2022-10-17T02:50:25;3.93;;;3.60;;
22826;SDS011;11580;52.562;13.418;2022-10-17T02:53:03;3.83;;;3.63;;
22826;SDS011;11580;52.562;13.418;2022-10-17T02:55:38;4.00;;;3.70;;
22826;SDS011;11580;52.562;13.418;2022-10-17T02:58:12;4.50;;;4.20;;
22826;SDS011;11580;52.562;13.418;2022-10-17T03:00:46;4.10;;;3.90;;
22826;SDS011;11580;52.562;13.418;2022-10-17T03:03:18;4.37;;;4.07;;
22826;SDS011;11580;52.562;13.418;2022-10-17T03:05:49;4.60;;;4.30;;
22826;SDS011;11580;52.562;13.418;2022-10-17T03:08:20;4.33;;;4.13;;
22826;SDS011;11580;52.562;13.418;2022-10-17T03:10:48;3.93;;;3.67;;
22826;SDS011;11580;52.562;13.418;2022-10-17T03:13:16;4.07;;;3.87;;
22826;SDS011;11580;52.562;13.418;2022-10-17T03:15:44;5.43;;;3.80;;
22826;SDS011;11580;52.562;13.418;2022-10-17T03:18:12;4.00;;;3.80;;
22826;SDS011;11580;52.562;13.418;2022-10-17T03:20:39;4.00;;;3.70;;
22826;SDS011;11580;52.562;13.418;2022-10-17T03:23:08;4.20;;;3.90;;
22826;SDS011;11580;52.562;13.418;2022-10-17T03:25:35;3.50;;;3.30;;
22826;SDS011;11580;52.562;13.418;2022-10-17T03:28:03;4.63;;;4.30;;
22826;SDS011;11580;52.562;13.418;2022-10-17T03:30:31;4.30;;;4.00;;
22826;SDS011;11580;52.562;13.418;2022-10-17T03:32:59;4.13;;;3.83;;
22826;SDS011;11580;52.562;13.418;2022-10-17T03:35:26;4.50;;;4.20;;
22826;SDS011;11580;52.562;13.418;2022-10-17T03:37:54;4.60;;;4.30;;
22826;SDS011;11580;52.562;13.418;2022-10-17T03:40:26;4.77;;;4.47;;
22826;SDS011;11580;52.562;13.418;2022-10-17T03:42:53;4.57;;;4.27;;
22826;SDS011;11580;52.562;13.418;2022-10-17T03:45:21;4.50;;;4.20;;
22826;SDS011;11580;52.562;13.418;2022-10-17T03:47:50;4.20;;;3.90;;
22826;SDS011;11580;52.562;13.418;2022-10-17T03:50:17;5.50;;;5.00;;
22826;SDS011;11580;52.562;13.418;2022-10-17T03:52:45;4.83;;;4.53;;
22826;SDS011;11580;52.562;13.418;2022-10-17T03:55:13;4.90;;;4.60;;
22826;SDS011;11580;52.562;13.418;2022-10-17T03:57:41;4.47;;;4.07;;
22826;SDS011;11580;52.562;13.418;2022-10-17T04:00:10;4.67;;;4.37;;
22826;SDS011;11580;52.562;13.418;2022-10-17T04:02:48;4.13;;;3.83;;
22826;SDS011;11580;52.562;13.418;2022-10-17T04:05:17;5.33;;;4.93;;
22826;SDS011;11580;52.562;13.418;2022-10-17T04:07:45;4.80;;;4.50;;
22826;SDS011;11580;52.562;13.418;2022-10-17T04:10:14;5.40;;;5.00;;
22826;SDS011;11580;52.562;13.418;2022-10-17T04:12:43;4.93;;;4.37;;
22826;SDS011;11580;52.562;13.418;2022-10-17T04:15:10;4.63;;;4.33;;
22826;SDS011;11580;52.562;13.418;2022-10-17T04:17:38;4.57;;;4.27;;
22826;SDS011;11580;52.562;13.418;2022-10-17T04:20:06;4.60;;;4.30;;
22826;SDS011;11580;52.562;13.418;2022-10-17T04:22:34;5.67;;;5.27;;
22826;SDS011;11580;52.562;13.418;2022-10-17T04:25:02;4.70;;;4.40;;
22826;SDS011;11580;52.562;13.418;2022-10-17T04:27:33;4.93;;;4.53;;
22826;SDS011;11580;52.562;13.418;2022-10-17T04:30:01;4.83;;;4.53;;
22826;SDS011;11580;52.562;13.418;2022-10-17T04:32:31;4.73;;;4.33;;
22826;SDS011;11580;52.562;13.418;2022-10-17T04:35:12;5.27;;;4.87;;
22826;SDS011;11580;52.562;13.418;2022-10-17T04:37:45;4.20;;;3.97;;
22826;SDS011;11580;52.562;13.418;2022-10-17T04:40:16;5.20;;;4.80;;
22826;SDS011;11580;52.562;13.418;2022-10-17T04:42:44;4.70;;;4.40;;
22826;SDS011;11580;52.562;13.418;2022-10-17T04:45:16;5.60;;;5.20;;
22826;SDS011;11580;52.562;13.418;2022-10-17T04:47:48;5.50;;;5.10;;
22826;SDS011;11580;52.562;13.418;2022-10-17T04:50:16;4.97;;;4.67;;
22826;SDS011;11580;52.562;13.418;2022-10-17T04:53:01;5.17;;;4.77;;
22826;SDS011;11580;52.562;13.418;2022-10-17T04:55:28;5.07;;;4.67;;
22826;SDS011;11580;52.562;13.418;2022-10-17T04:57:56;5.00;;;4.70;;
22826;SDS011;11580;52.562;13.418;2022-10-17T05:00:26;6.33;;;5.83;;
22826;SDS011;11580;52.562;13.418;2022-10-17T05:03:04;5.57;;;5.27;;
22826;SDS011;11580;52.562;13.418;2022-10-17T05:05:31;5.60;;;5.20;;
22826;SDS011;11580;52.562;13.418;2022-10-17T05:08:00;6.37;;;5.00;;
22826;SDS011;11580;52.562;13.418;2022-10-17T05:10:34;5.70;;;5.30;;
22826;SDS011;11580;52.562;13.418;2022-10-17T05:13:03;5.00;;;4.70;;
22826;SDS011;11580;52.562;13.418;2022-10-17T05:15:33;5.47;;;5.00;;
22826;SDS011;11580;52.562;13.418;2022-10-17T05:18:02;5.20;;;4.90;;
22826;SDS011;11580;52.562;13.418;2022-10-17T05:20:31;5.00;;;4.70;;
22826;SDS011;11580;52.562;13.418;2022-10-17T05:22:59;5.33;;;5.00;;
22826;SDS011;11580;52.562;13.418;2022-10-17T05:25:32;6.23;;;5.83;;
22826;SDS011;11580;52.562;13.418;2022-10-17T05:27:59;5.47;;;5.10;;
22826;SDS011;11580;52.562;13.418;2022-10-17T05:30:27;6.10;;;5.60;;
22826;SDS011;11580;52.562;13.418;2022-10-17T05:33:00;5.30;;;4.90;;
22826;SDS011;11580;52.562;13.418;2022-10-17T05:35:27;5.90;;;5.50;;
22826;SDS011;11580;52.562;13.418;2022-10-17T05:37:55;5.40;;;5.10;;
22826;SDS011;11580;52.562;13.418;2022-10-17T05:40:24;5.70;;;5.20;;
22826;SDS011;11580;52.562;13.418;2022-10-17T05:42:53;5.60;;;5.20;;
22826;SDS011;11580;52.562;13.418;2022-10-17T05:45:22;5.27;;;4.97;;
22826;SDS011;11580;52.562;13.418;2022-10-17T05:47:49;5.30;;;4.90;;
22826;SDS011;11580;52.562;13.418;2022-10-17T05:50:18;5.10;;;4.80;;
22826;SDS011;11580;52.562;13.418;2022-10-17T05:53:02;5.70;;;5.40;;
22826;SDS011;11580;52.562;13.418;2022-10-17T05:55:33;5.37;;;5.00;;
22826;SDS011;11580;52.562;13.418;2022-10-17T05:58:00;5.73;;;5.23;;
22826;SDS011;11580;52.562;13.418;2022-10-17T06:00:33;5.37;;;4.97;;
22826;SDS011;11580;52.562;13.418;2022-10-17T06:03:01;6.27;;;5.80;;
22826;SDS011;11580;52.562;13.418;2022-10-17T06:05:29;6.50;;;6.00;;
22826;SDS011;11580;52.562;13.418;2022-10-17T06:07:56;6.20;;;5.70;;
22826;SDS011;11580;52.562;13.418;2022-10-17T06:10:24;5.60;;;5.30;;
22826;SDS011;11580;52.562;13.418;2022-10-17T06:12:52;6.57;;;5.90;;
22826;SDS011;11580;52.562;13.418;2022-10-17T06:15:19;6.30;;;5.90;;
22826;SDS011;11580;52.562;13.418;2022-10-17T06:17:56;6.03;;;5.63;;
22826;SDS011;11580;52.562;13.418;2022-10-17T06:20:23;5.83;;;5.33;;
22826;SDS011;11580;52.562;13.418;2022-10-17T06:22:52;6.17;;;5.67;;
22826;SDS011;11580;52.562;13.418;2022-10-17T06:25:33;5.40;;;4.90;;
22826;SDS011;11580;52.562;13.418;2022-10-17T06:28:00;5.50;;;5.10;;
22826;SDS011;11580;52.562;13.418;2022-10-17T06:30:28;6.50;;;6.00;;
22826;SDS011;11580;52.562;13.418;2022-10-17T06:32:55;5.83;;;5.47;;
22826;SDS011;11580;52.562;13.418;2022-10-17T06:35:22;5.00;;;4.53;;
22826;SDS011;11580;52.562;13.418;2022-10-17T06:37:49;4.77;;;4.47;;
22826;SDS011;11580;52.562;13.418;2022-10-17T06:40:18;5.60;;;5.27;;
22826;SDS011;11580;52.562;13.418;2022-10-17T06:42:46;6.40;;;5.80;;
22826;SDS011;11580;52.562;13.418;2022-10-17T06:45:32;5.87;;;5.40;;
22826;SDS011;11580;52.562;13.418;2022-10-17T06:48:25;5.00;;;4.70;;
22826;SDS011;11580;52.562;13.418;2022-10-17T06:51:16;5.57;;;5.17;;
22826;SDS011;11580;52.562;13.418;2022-10-17T06:53:51;5.83;;;5.33;;
22826;SDS011;11580;52.562;13.418;2022-10-17T06:56:47;5.97;;;5.57;;
22826;SDS011;11580;52.562;13.418;2022-10-17T06:59:17;5.50;;;5.10;;
22826;SDS011;11580;52.562;13.418;2022-10-17T07:01:53;6.20;;;5.70;;
22826;SDS011;11580;52.562;13.418;2022-10-17T07:04:22;6.87;;;5.50;;
22826;SDS011;11580;52.562;13.418;2022-10-17T07:06:49;5.43;;;4.93;;
22826;SDS011;11580;52.562;13.418;2022-10-17T07:09:19;5.53;;;5.13;;
22826;SDS011;11580;52.562;13.418;2022-10-17T07:11:49;5.60;;;4.93;;
22826;SDS011;11580;52.562;13.418;2022-10-17T07:14:17;5.97;;;5.57;;
22826;SDS011;11580;52.562;13.418;2022-10-17T07:16:45;5.50;;;5.10;;
22826;SDS011;11580;52.562;13.418;2022-10-17T07:19:21;5.00;;;4.70;;
22826;SDS011;11580;52.562;13.418;2022-10-17T07:21:49;5.70;;;5.30;;
22826;SDS011;11580;52.562;13.418;2022-10-17T07:24:16;5.43;;;5.03;;
22826;SDS011;11580;52.562;13.418;2022-10-17T07:26:47;5.20;;;4.70;;
22826;SDS011;11580;52.562;13.418;2022-10-17T07:29:16;5.17;;;4.83;;
22826;SDS011;11580;52.562;13.418;2022-10-17T07:31:51;5.07;;;4.67;;
22826;SDS011;11580;52.562;13.418;2022-10-17T07:34:19;5.43;;;5.03;;
22826;SDS011;11580;52.562;13.418;2022-10-17T07:36:47;5.67;;;5.23;;
22826;SDS011;11580;52.562;13.418;2022-10-17T07:39:16;5.50;;;5.10;;
22826;SDS011;11580;52.562;13.418;2022-10-17T07:41:44;5.40;;;5.00;;
22826;SDS011;11580;52.562;13.418;2022-10-17T07:44:13;5.40;;;5.00;;
22826;SDS011;11580;52.562;13.418;2022-10-17T07:46:44;5.17;;;4.77;;
22826;SDS011;11580;52.562;13.418;2022-10-17T07:49:11;6.10;;;5.30;;
22826;SDS011;11580;52.562;13.418;2022-10-17T07:51:40;5.33;;;4.93;;
22826;SDS011;11580;52.562;13.418;2022-10-17T07:54:07;5.70;;;5.20;;
22826;SDS011;11580;52.562;13.418;2022-10-17T07:56:34;5.50;;;5.00;;
22826;SDS011;11580;52.562;13.418;2022-10-17T07:59:02;5.47;;;5.07;;
22826;SDS011;11580;52.562;13.418;2022-10-17T08:01:30;5.30;;;4.90;;
22826;SDS011;11580;52.562;13.418;2022-10-17T08:03:57;5.20;;;4.83;;
22826;SDS011;11580;52.562;13.418;2022-10-17T08:06:25;4.63;;;4.27;;
22826;SDS011;11580;52.562;13.418;2022-10-17T08:08:52;4.93;;;4.63;;
22826;SDS011;11580;52.562;13.418;2022-10-17T08:11:21;4.50;;;4.20;;
22826;SDS011;11580;52.562;13.418;2022-10-17T08:13:49;4.60;;;4.30;;
22826;SDS011;11580;52.562;13.418;2022-10-17T08:16:16;4.67;;;4.37;;
22826;SDS011;11580;52.562;13.418;2022-10-17T08:18:45;5.43;;;4.30;;
22826;SDS011;11580;52.562;13.418;2022-10-17T08:21:12;4.90;;;4.50;;
22826;SDS011;11580;52.562;13.418;2022-10-17T08:23:39;5.00;;;4.60;;
22826;SDS011;11580;52.562;13.418;2022-10-17T08:26:07;4.40;;;4.10;;
22826;SDS011;11580;52.562;13.418;2022-10-17T08:28:38;4.63;;;4.30;;
22826;SDS011;11580;52.562;13.418;2022-10-17T08:31:07;5.07;;;4.73;;
22826;SDS011;11580;52.562;13.418;2022-10-17T08:33:36;4.80;;;4.50;;
22826;SDS011;11580;52.562;13.418;2022-10-17T08:36:06;5.20;;;4.80;;
22826;SDS011;11580;52.562;13.418;2022-10-17T08:38:35;4.70;;;4.37;;
22826;SDS011;11580;52.562;13.418;2022-10-17T08:41:05;4.30;;;4.00;;
22826;SDS011;11580;52.562;13.418;2022-10-17T08:43:43;5.20;;;4.80;;
22826;SDS011;11580;52.562;13.418;2022-10-17T08:46:28;5.63;;;5.13;;
22826;SDS011;11580;52.562;13.418;2022-10-17T08:48:57;4.43;;;4.13;;
22826;SDS011;11580;52.562;13.418;2022-10-17T08:51:29;4.47;;;4.17;;
22826;SDS011;11580;52.562;13.418;2022-10-17T08:54:03;4.00;;;3.70;;
22826;SDS011;11580;52.562;13.418;2022-10-17T08:56:39;7.90;;;4.77;;
22826;SDS011;11580;52.562;13.418;2022-10-17T08:59:09;4.93;;;4.33;;
22826;SDS011;11580;52.562;13.418;2022-10-17T09:01:40;4.77;;;4.40;;
22826;SDS011;11580;52.562;13.418;2022-10-17T09:04:19;4.40;;;4.10;;
22826;SDS011;11580;52.562;13.418;2022-10-17T09:07:20;4.80;;;4.50;;
22826;SDS011;11580;52.562;13.418;2022-10-17T09:10:00;4.43;;;4.03;;
22826;SDS011;11580;52.562;13.418;2022-10-17T09:12:42;4.77;;;4.30;;
22826;SDS011;11580;52.562;13.418;2022-10-17T09:15:41;4.27;;;3.97;;
22826;SDS011;11580;52.562;13.418;2022-10-17T09:18:23;4.60;;;4.20;;
22826;SDS011;11580;52.562;13.418;2022-10-17T09:20:56;4.13;;;3.83;;
22826;SDS011;11580;52.562;13.418;2022-10-17T09:23:40;4.80;;;3.40;;
22826;SDS011;11580;52.562;13.418;2022-10-17T09:26:12;4.10;;;3.80;;
22826;SDS011;11580;52.562;13.418;2022-10-17T09:28:41;4.30;;;3.90;;
22826;SDS011;11580;52.562;13.418;2022-10-17T09:31:11;4.10;;;3.80;;
22826;SDS011;11580;52.562;13.418;2022-10-17T09:33:46;4.07;;;3.60;;
22826;SDS011;11580;52.562;13.418;2022-10-17T09:36:17;3.30;;;3.10;;
22826;SDS011;11580;52.562;13.418;2022-10-17T09:38:49;3.53;;;3.33;;
22826;SDS011;11580;52.562;13.418;2022-10-17T09:41:22;3.70;;;3.40;;
22826;SDS011;11580;52.562;13.418;2022-10-17T09:43:55;3.40;;;3.17;;
22826;SDS011;11580;52.562;13.418;2022-10-17T09:46:34;3.63;;;3.43;;
22826;SDS011;11580;52.562;13.418;2022-10-17T09:49:04;4.07;;;3.77;;
22826;SDS011;11580;52.562;13.418;2022-10-17T09:51:37;3.87;;;3.57;;
22826;SDS011;11580;52.562;13.418;2022-10-17T09:54:10;3.83;;;3.30;;
22826;SDS011;11580;52.562;13.418;2022-10-17T09:56:58;3.50;;;3.30;;
22826;SDS011;11580;52.562;13.418;2022-10-17T09:59:31;3.80;;;3.50;;
22826;SDS011;11580;52.562;13.418;2022-10-17T10:02:06;3.63;;;3.40;;
22826;SDS011;11580;52.562;13.418;2022-10-17T10:04:50;10.50;;;3.67;;
22826;SDS011;11580;52.562;13.418;2022-10-17T10:07:20;3.23;;;2.93;;
22826;SDS011;11580;52.562;13.418;2022-10-17T10:09:49;3.47;;;3.17;;
22826;SDS011;11580;52.562;13.418;2022-10-17T10:12:19;3.37;;;3.17;;
22826;SDS011;11580;52.562;13.418;2022-10-17T10:14:49;3.70;;;3.43;;
22826;SDS011;11580;52.562;13.418;2022-10-17T10:17:25;3.40;;;3.20;;
22826;SDS011;11580;52.562;13.418;2022-10-17T10:20:01;3.20;;;3.00;;
22826;SDS011;11580;52.562;13.418;2022-10-17T10:23:02;3.60;;;3.30;;
22826;SDS011;11580;52.562;13.418;2022-10-17T10:25:33;3.03;;;2.83;;
22826;SDS011;11580;52.562;13.418;2022-10-17T10:28:01;3.30;;;3.10;;
22826;SDS011;11580;52.562;13.418;2022-10-17T10:30:36;3.60;;;3.40;;
22826;SDS011;11580;52.562;13.418;2022-10-17T10:33:03;3.20;;;3.00;;
22826;SDS011;11580;52.562;13.418;2022-10-17T10:35:31;3.73;;;3.50;;
22826;SDS011;11580;52.562;13.418;2022-10-17T10:38:02;3.60;;;3.30;;
22826;SDS011;11580;52.562;13.418;2022-10-17T10:40:43;4.13;;;3.67;;
22826;SDS011;11580;52.562;13.418;2022-10-17T10:43:19;3.33;;;3.07;;
22826;SDS011;11580;52.562;13.418;2022-10-17T10:45:52;3.37;;;3.17;;
22826;SDS011;11580;52.562;13.418;2022-10-17T10:48:20;4.00;;;3.40;;
22826;SDS011;11580;52.562;13.418;2022-10-17T10:50:49;3.50;;;3.30;;
22826;SDS011;11580;52.562;13.418;2022-10-17T10:53:31;5.60;;;3.40;;
22826;SDS011;11580;52.562;13.418;2022-10-17T10:56:09;3.67;;;3.37;;
22826;SDS011;11580;52.562;13.418;2022-10-17T10:58:47;4.03;;;3.50;;
22826;SDS011;11580;52.562;13.418;2022-10-17T11:01:23;3.83;;;3.50;;
22826;SDS011;11580;52.562;13.418;2022-10-17T11:04:00;3.77;;;3.40;;
22826;SDS011;11580;52.562;13.418;2022-10-17T11:06:45;3.50;;;3.20;;
22826;SDS011;11580;52.562;13.418;2022-10-17T11:09:23;3.57;;;3.37;;
22826;SDS011;11580;52.562;13.418;2022-10-17T11:12:03;3.80;;;3.50;;
22826;SDS011;11580;52.562;13.418;2022-10-17T11:14:40;6.37;;;3.30;;
22826;SDS011;11580;52.562;13.418;2022-10-17T11:17:16;2.97;;;2.70;;
22826;SDS011;11580;52.562;13.418;2022-10-17T11:20:11;2.90;;;2.70;;
22826;SDS011;11580;52.562;13.418;2022-10-17T11:22:48;3.27;;;3.07;;
22826;SDS011;11580;52.562;13.418;2022-10-17T11:25:28;5.33;;;2.83;;
22826;SDS011;11580;52.562;13.418;2022-10-17T11:28:01;3.10;;;2.90;;
22826;SDS011;11580;52.562;13.418;2022-10-17T11:30:32;3.40;;;3.20;;
22826;SDS011;11580;52.562;13.418;2022-10-17T11:33:11;2.70;;;2.50;;
22826;SDS011;11580;52.562;13.418;2022-10-17T11:35:49;2.97;;;2.77;;
22826;SDS011;11580;52.562;13.418;2022-10-17T11:38:20;3.73;;;3.43;;
22826;SDS011;11580;52.562;13.418;2022-10-17T11:40:58;3.33;;;3.03;;
22826;SDS011;11580;52.562;13.418;2022-10-17T11:43:27;3.00;;;2.80;;
22826;SDS011;11580;52.562;13.418;2022-10-17T11:46:01;3.03;;;2.83;;
22826;SDS011;11580;52.562;13.418;2022-10-17T11:48:40;3.50;;;2.80;;
22826;SDS011;11580;52.562;13.418;2022-10-17T11:51:21;2.93;;;2.73;;
22826;SDS011;11580;52.562;13.418;2022-10-17T11:53:49;3.50;;;3.13;;
22826;SDS011;11580;52.562;13.418;2022-10-17T11:56:28;3.33;;;3.03;;
22826;SDS011;11580;52.562;13.418;2022-10-17T11:59:08;3.10;;;2.80;;
22826;SDS011;11580;52.562;13.418;2022-10-17T12:02:27;2.87;;;2.67;;
22826;SDS011;11580;52.562;13.418;2022-10-17T12:05:17;3.30;;;3.10;;
22826;SDS011;11580;52.562;13.418;2022-10-17T12:07:54;3.10;;;2.90;;
22826;SDS011;11580;52.562;13.418;2022-10-17T12:10:32;4.23;;;3.90;;
22826;SDS011;11580;52.562;13.418;2022-10-17T12:19:27;5.53;;;2.90;;
22826;SDS011;11580;52.562;13.418;2022-10-17T12:21:59;3.40;;;3.20;;
22826;SDS011;11580;52.562;13.418;2022-10-17T12:24:40;3.13;;;2.83;;
22826;SDS011;11580;52.562;13.418;2022-10-17T12:27:26;3.70;;;3.40;;
22826;SDS011;11580;52.562;13.418;2022-10-17T12:30:15;3.47;;;3.17;;
22826;SDS011;11580;52.562;13.418;2022-10-17T12:32:59;3.50;;;3.20;;
22826;SDS011;11580;52.562;13.418;2022-10-17T12:35:32;3.87;;;3.57;;
22826;SDS011;11580;52.562;13.418;2022-10-17T12:40:59;7.53;;;3.50;;
22826;SDS011;11580;52.562;13.418;2022-10-17T12:43:34;3.50;;;3.20;;
22826;SDS011;11580;52.562;13.418;2022-10-17T12:52:16;3.73;;;3.43;;
22826;SDS011;11580;52.562;13.418;2022-10-17T12:54:50;3.80;;;3.43;;
22826;SDS011;11580;52.562;13.418;2022-10-17T12:57:39;4.30;;;3.70;;
22826;SDS011;11580;52.562;13.418;2022-10-17T13:00:19;4.10;;;3.70;;
22826;SDS011;11580;52.562;13.418;2022-10-17T13:02:53;3.40;;;3.10;;
22826;SDS011;11580;52.562;13.418;2022-10-17T13:05:31;3.60;;;3.30;;
22826;SDS011;11580;52.562;13.418;2022-10-17T13:08:02;3.47;;;3.17;;
22826;SDS011;11580;52.562;13.418;2022-10-17T13:10:34;3.80;;;3.43;;
22826;SDS011;11580;52.562;13.418;2022-10-17T13:13:05;3.83;;;3.53;;
22826;SDS011;11580;52.562;13.418;2022-10-17T13:15:46;3.00;;;2.80;;
22826;SDS011;11580;52.562;13.418;2022-10-17T13:18:17;3.07;;;2.87;;
22826;SDS011;11580;52.562;13.418;2022-10-17T13:20:55;3.03;;;2.83;;
22826;SDS011;11580;52.562;13.418;2022-10-17T13:23:29;4.90;;;3.13;;
22826;SDS011;11580;52.562;13.418;2022-10-17T13:26:09;3.57;;;3.37;;
22826;SDS011;11580;52.562;13.418;2022-10-17T13:28:42;3.83;;;3.53;;
22826;SDS011;11580;52.562;13.418;2022-10-17T13:31:28;3.50;;;3.30;;
22826;SDS011;11580;52.562;13.418;2022-10-17T13:33:59;3.43;;;3.23;;
22826;SDS011;11580;52.562;13.418;2022-10-17T13:36:30;4.33;;;3.27;;
22826;SDS011;11580;52.562;13.418;2022-10-17T13:38:59;3.93;;;3.63;;
22826;SDS011;11580;52.562;13.418;2022-10-17T13:41:33;3.50;;;3.30;;
22826;SDS011;11580;52.562;13.418;2022-10-17T13:44:03;3.63;;;3.33;;
22826;SDS011;11580;52.562;13.418;2022-10-17T13:46:39;3.90;;;3.60;;
22826;SDS011;11580;52.562;13.418;2022-10-17T13:49:10;4.00;;;3.70;;
22826;SDS011;11580;52.562;13.418;2022-10-17T13:51:46;3.60;;;3.33;;
22826;SDS011;11580;52.562;13.418;2022-10-17T13:54:34;4.23;;;3.83;;
22826;SDS011;11580;52.562;13.418;2022-10-17T13:57:04;3.30;;;3.00;;
22826;SDS011;11580;52.562;13.418;2022-10-17T13:59:45;3.53;;;3.23;;
22826;SDS011;11580;52.562;13.418;2022-10-17T14:02:16;3.83;;;3.53;;
22826;SDS011;11580;52.562;13.418;2022-10-17T14:04:46;3.23;;;2.80;;
22826;SDS011;11580;52.562;13.418;2022-10-17T14:07:27;3.53;;;3.20;;
22826;SDS011;11580;52.562;13.418;2022-10-17T14:10:01;3.43;;;3.13;;
22826;SDS011;11580;52.562;13.418;2022-10-17T14:12:31;3.47;;;3.17;;
22826;SDS011;11580;52.562;13.418;2022-10-17T14:15:01;3.70;;;3.23;;
22826;SDS011;11580;52.562;13.418;2022-10-17T14:17:30;4.37;;;3.40;;
22826;SDS011;11580;52.562;13.418;2022-10-17T14:19:58;3.47;;;3.17;;
22826;SDS011;11580;52.562;13.418;2022-10-17T14:22:32;3.60;;;3.30;;
22826;SDS011;11580;52.562;13.418;2022-10-17T14:25:01;3.50;;;3.20;;
22826;SDS011;11580;52.562;13.418;2022-10-17T14:27:31;3.43;;;3.23;;
22826;SDS011;11580;52.562;13.418;2022-10-17T14:30:04;3.70;;;3.30;;
22826;SDS011;11580;52.562;13.418;2022-10-17T14:32:57;3.67;;;3.47;;
22826;SDS011;11580;52.562;13.418;2022-10-17T14:35:27;4.37;;;2.77;;
22826;SDS011;11580;52.562;13.418;2022-10-17T14:37:57;3.60;;;3.00;;
22826;SDS011;11580;52.562;13.418;2022-10-17T14:40:28;3.00;;;2.80;;
22826;SDS011;11580;52.562;13.418;2022-10-17T14:42:58;3.07;;;2.87;;
22826;SDS011;11580;52.562;13.418;2022-10-17T14:45:30;2.77;;;2.53;;
22826;SDS011;11580;52.562;13.418;2022-10-17T14:48:03;3.00;;;2.80;;
22826;SDS011;11580;52.562;13.418;2022-10-17T14:50:37;3.03;;;2.80;;
22826;SDS011;11580;52.562;13.418;2022-10-17T14:53:16;3.47;;;3.20;;
22826;SDS011;11580;52.562;13.418;2022-10-17T14:55:53;3.53;;;3.23;;
22826;SDS011;11580;52.562;13.418;2022-10-17T14:58:23;3.50;;;3.27;;
22826;SDS011;11580;52.562;13.418;2022-10-17T15:00:53;3.77;;;3.47;;
22826;SDS011;11580;52.562;13.418;2022-10-17T15:03:20;3.50;;;3.20;;
22826;SDS011;11580;52.562;13.418;2022-10-17T15:05:48;3.60;;;3.30;;
22826;SDS011;11580;52.562;13.418;2022-10-17T15:08:21;4.50;;;2.97;;
22826;SDS011;11580;52.562;13.418;2022-10-17T15:10:49;3.40;;;3.10;;
22826;SDS011;11580;52.562;13.418;2022-10-17T15:13:17;6.73;;;3.70;;
22826;SDS011;11580;52.562;13.418;2022-10-17T15:15:44;6.67;;;3.17;;
22826;SDS011;11580;52.562;13.418;2022-10-17T15:18:15;4.70;;;3.60;;
22826;SDS011;11580;52.562;13.418;2022-10-17T15:20:42;4.00;;;3.70;;
22826;SDS011;11580;52.562;13.418;2022-10-17T15:23:09;3.67;;;3.30;;
22826;SDS011;11580;52.562;13.418;2022-10-17T15:25:38;4.07;;;3.77;;
22826;SDS011;11580;52.562;13.418;2022-10-17T15:28:05;3.53;;;3.33;;
22826;SDS011;11580;52.562;13.418;2022-10-17T15:30:34;3.80;;;3.50;;